Weather Data

Pearl Creek Farm: 8878 N Farm Road 75, Walnut Grove MO 65770

<== Previous Day (Monday 18 Aug 2008) | Next Day (Wednesday 20 Aug 2008) ==>

Summary Precipitation Data For Tuesday 19 August 2008

ElementValueUnits
Precipitation0"
Notes(none)
SourceSpringfield-Branson National Airport (SGF)

Summary Temperature Data For Tuesday 19 August 2008

ElementValueUnits
High Temperature80 oF
Low Temperature66 oF
Average Temperature73 oF
High Humidity73 %
Low Humidity44 %
Average Humidity58 %
SourceSpringfield-Branson National Airport (SGF)

Detail Temperature Data For Tuesday 19 August 2008

Date / TimeTemp (F)RH (%)Dew Pt (F)Report Date / TimeSource
2008-08-19 12:52:00 80 45 57.0 2017-12-29 19:14:24.89625 Springfield-Branson National Airport (SGF)
2008-08-19 18:52:00 74 62 60.0 2017-12-29 19:14:24.89625 Springfield-Branson National Airport (SGF)
2008-08-19 19:52:00 73 64 60.0 2017-12-29 19:14:24.89625 Springfield-Branson National Airport (SGF)
2008-08-19 20:52:00 72 66 60.0 2017-12-29 19:14:24.89625 Springfield-Branson National Airport (SGF)
2008-08-19 22:52:00 72 61 58.0 2017-12-29 19:14:24.89625 Springfield-Branson National Airport (SGF)
2008-08-19 23:52:00 72 64 59.0 2017-12-29 19:14:24.89625 Springfield-Branson National Airport (SGF)
2008-08-19 00:52:00 69 63 56.0 2017-12-29 19:14:24.89625 Springfield-Branson National Airport (SGF)
2008-08-19 01:52:00 68 65 56.0 2017-12-29 19:14:24.89625 Springfield-Branson National Airport (SGF)
2008-08-19 02:52:00 68 65 56.0 2017-12-29 19:14:24.89625 Springfield-Branson National Airport (SGF)
2008-08-19 03:52:00 66 73 57.0 2017-12-29 19:14:24.89625 Springfield-Branson National Airport (SGF)
2008-08-19 04:52:00 67 66 55.0 2017-12-29 19:14:24.89625 Springfield-Branson National Airport (SGF)
2008-08-19 05:52:00 66 68 55.0 2017-12-29 19:14:24.89625 Springfield-Branson National Airport (SGF)
2008-08-19 06:52:00 68 63 55.0 2017-12-29 19:14:24.89625 Springfield-Branson National Airport (SGF)
2008-08-19 07:52:00 70 59 55.0 2017-12-29 19:14:24.89625 Springfield-Branson National Airport (SGF)
2008-08-19 08:52:00 73 53 55.0 2017-12-29 19:14:24.89625 Springfield-Branson National Airport (SGF)
2008-08-19 09:52:00 75 50 55.0 2017-12-29 19:14:24.89625 Springfield-Branson National Airport (SGF)
2008-08-19 10:52:00 77 50 57.0 2017-12-29 19:14:24.89625 Springfield-Branson National Airport (SGF)
2008-08-19 11:52:00 79 45 56.0 2017-12-29 19:14:24.89625 Springfield-Branson National Airport (SGF)
2008-08-19 13:52:00 79 44 55.0 2017-12-29 19:14:24.89625 Springfield-Branson National Airport (SGF)
2008-08-19 14:52:00 78 48 57.0 2017-12-29 19:14:24.89625 Springfield-Branson National Airport (SGF)
2008-08-19 15:52:00 79 49 58.0 2017-12-29 19:14:24.89625 Springfield-Branson National Airport (SGF)
2008-08-19 16:52:00 77 52 58.0 2017-12-29 19:14:24.89625 Springfield-Branson National Airport (SGF)
2008-08-19 17:52:00 75 58 59.0 2017-12-29 19:14:24.89625 Springfield-Branson National Airport (SGF)
2008-08-19 21:52:00 72 61 58.0 2017-12-29 19:14:24.89625 Springfield-Branson National Airport (SGF)

A total of 24 rows are displayed.